createdAt,value
2022-08-04T00:01:44.082Z,24.82
2022-08-04T00:04:28.148Z,24.36
2022-08-04T00:07:10.237Z,24.07
2022-08-04T00:09:57.082Z,24.16
2022-08-04T00:12:31.464Z,24.37
2022-08-04T00:15:04.166Z,24.47
2022-08-04T00:17:41.321Z,24.51
2022-08-04T00:20:18.677Z,24.82
2022-08-04T00:22:49.468Z,24.79
2022-08-04T00:25:20.197Z,24.18
2022-08-04T00:27:50.512Z,24.28
2022-08-04T00:30:22.811Z,24.77
2022-08-04T00:32:53.607Z,24.68
2022-08-04T00:35:24.487Z,24.61
2022-08-04T00:37:55.903Z,24.33
2022-08-04T00:40:31.407Z,24.34
2022-08-04T00:43:20.794Z,24.30
2022-08-04T00:46:18.029Z,24.39
2022-08-04T00:48:59.820Z,24.19
2022-08-04T00:51:43.772Z,24.43
2022-08-04T00:54:35.983Z,24.34
2022-08-04T00:57:45.653Z,24.20
2022-08-04T01:00:16.728Z,23.61
2022-08-04T01:03:00.113Z,23.93
2022-08-04T01:05:48.872Z,23.43
2022-08-04T01:08:28.214Z,23.78
2022-08-04T01:11:01.500Z,23.35
2022-08-04T01:14:03.323Z,23.72
2022-08-04T01:16:33.163Z,23.49
2022-08-04T01:19:12.588Z,23.81
2022-08-04T01:22:19.940Z,23.74
2022-08-04T01:25:21.464Z,23.64
2022-08-04T01:28:12.019Z,23.96
2022-08-04T01:30:46.439Z,23.55
2022-08-04T01:33:18.865Z,23.49
2022-08-04T01:35:58.633Z,23.79
2022-08-04T01:38:37.800Z,23.44
2022-08-04T01:41:15.937Z,23.77
2022-08-04T01:43:47.365Z,23.39
2022-08-04T01:46:18.920Z,23.55
2022-08-04T01:48:54.748Z,23.71
2022-08-04T01:51:26.794Z,23.45
2022-08-04T01:53:57.359Z,23.51
2022-08-04T01:56:30.037Z,23.20
2022-08-04T01:59:01.378Z,23.18
2022-08-04T02:01:36.643Z,23.31
2022-08-04T02:04:20.425Z,23.11
2022-08-04T02:07:18.581Z,23.48
2022-08-04T02:09:55.392Z,23.20
2022-08-04T02:12:28.415Z,23.17
2022-08-04T02:15:24.404Z,23.07
2022-08-04T02:18:26.051Z,22.82
2022-08-04T02:21:05.380Z,23.00
2022-08-04T02:23:41.604Z,22.92
2022-08-04T02:26:22.767Z,22.85
2022-08-04T02:29:12.564Z,23.12
2022-08-04T02:31:45.641Z,23.18
2022-08-04T02:34:45.127Z,23.10
2022-08-04T02:37:22.280Z,22.89
2022-08-04T02:39:54.976Z,23.16
2022-08-04T02:42:29.450Z,23.12
2022-08-04T02:45:01.303Z,22.68
2022-08-04T02:48:08.083Z,23.04
2022-08-04T02:50:29.173Z,22.85
2022-08-04T02:53:03.187Z,22.91
2022-08-04T02:55:34.648Z,22.93
2022-08-04T02:58:13.517Z,23.04
2022-08-04T03:00:45.413Z,22.92
2022-08-04T03:03:25.370Z,23.13
2022-08-04T03:06:10.367Z,22.87
2022-08-04T03:08:47.178Z,23.05
2022-08-04T03:11:22.516Z,22.82
2022-08-04T03:14:06.104Z,22.83
2022-08-04T03:17:16.552Z,22.95
2022-08-04T03:20:02.282Z,22.67
2022-08-04T03:23:13.169Z,22.97
2022-08-04T03:26:14.502Z,22.72
2022-08-04T03:29:02.535Z,22.49
2022-08-04T03:31:36.214Z,22.52
2022-08-04T03:34:27.299Z,22.67
2022-08-04T03:37:20.781Z,22.45
2022-08-04T03:40:09.774Z,22.63
2022-08-04T03:42:58.941Z,22.39
2022-08-04T03:45:51.259Z,22.67
2022-08-04T03:48:59.291Z,22.54
2022-08-04T03:52:01.739Z,22.74
2022-08-04T03:54:44.908Z,22.54
2022-08-04T03:57:43.049Z,22.88
2022-08-04T04:00:18.492Z,22.82
2022-08-04T04:02:58.834Z,22.85
2022-08-04T04:06:00.035Z,22.99
2022-08-04T04:08:53.686Z,23.26
2022-08-04T04:12:00.258Z,23.09
2022-08-04T04:14:44.427Z,23.12
2022-08-04T04:17:19.414Z,23.22
2022-08-04T04:20:08.787Z,23.54
2022-08-04T04:22:55.774Z,23.48
2022-08-04T04:25:42.919Z,23.82
2022-08-04T04:28:46.123Z,23.84
2022-08-04T04:31:48.669Z,23.68
2022-08-04T04:34:23.994Z,23.74
2022-08-04T04:37:28.143Z,23.83
2022-08-04T04:39:59.991Z,23.98
2022-08-04T04:43:01.669Z,24.05
2022-08-04T04:45:32.006Z,24.11
2022-08-04T04:48:12.904Z,24.26
2022-08-04T04:51:05.370Z,24.27
2022-08-04T04:54:00.087Z,24.64
2022-08-04T04:56:41.506Z,24.58
2022-08-04T04:59:16.024Z,24.78
2022-08-04T05:01:47.433Z,25.04
2022-08-04T05:04:48.883Z,25.10
2022-08-04T05:07:53.179Z,25.40
2022-08-04T05:10:28.311Z,25.46
2022-08-04T05:14:38.057Z,25.59
2022-08-04T05:16:24.301Z,25.67
2022-08-04T05:19:04.236Z,25.75
2022-08-04T05:21:35.436Z,25.80
2022-08-04T05:24:07.422Z,25.94
2022-08-04T05:26:40.045Z,26.11
2022-08-04T05:29:10.216Z,25.95
2022-08-04T05:31:44.290Z,26.36
2022-08-04T05:34:21.177Z,26.36
2022-08-04T05:36:59.600Z,26.03
2022-08-04T05:39:34.345Z,26.00
2022-08-04T05:42:05.072Z,26.07
2022-08-04T05:44:39.435Z,26.29
2022-08-04T05:47:09.076Z,26.49
2022-08-04T05:49:38.888Z,26.46
2022-08-04T05:52:10.173Z,26.58
2022-08-04T05:54:39.295Z,26.60
2022-08-04T05:57:09.091Z,26.39
2022-08-04T05:59:46.604Z,26.67
2022-08-04T06:02:16.957Z,27.18
2022-08-04T06:04:49.190Z,27.25
2022-08-04T06:07:18.770Z,27.14
2022-08-04T06:09:50.600Z,27.00
2022-08-04T06:12:22.303Z,27.21
2022-08-04T06:14:54.963Z,27.48
2022-08-04T06:18:33.594Z,27.61
2022-08-04T06:20:23.342Z,27.55
2022-08-04T06:22:54.661Z,27.53
2022-08-04T06:25:25.795Z,27.62
2022-08-04T06:27:55.303Z,27.94
2022-08-04T06:30:27.005Z,27.97
2022-08-04T06:33:03.622Z,27.96
2022-08-04T06:35:35.106Z,28.03
2022-08-04T06:38:03.753Z,28.37
2022-08-04T06:40:34.397Z,28.19
2022-08-04T06:43:06.265Z,28.32
2022-08-04T06:45:37.682Z,28.61
2022-08-04T06:48:07.219Z,28.76
2022-08-04T06:51:24.917Z,28.87
2022-08-04T06:53:26.542Z,28.64
2022-08-04T06:55:54.930Z,28.94
2022-08-04T06:58:23.916Z,28.88
2022-08-04T07:00:55.751Z,29.17
2022-08-04T07:03:25.024Z,29.38
2022-08-04T07:05:53.488Z,29.38
2022-08-04T07:08:24.599Z,29.52
2022-08-04T07:10:54.373Z,29.64
2022-08-04T07:13:22.918Z,29.39
2022-08-04T07:15:51.120Z,29.30
2022-08-04T07:18:19.552Z,29.65
2022-08-04T07:20:48.782Z,29.75
2022-08-04T07:23:21.591Z,29.95
2022-08-04T07:25:59.911Z,30.38
2022-08-04T07:28:42.268Z,30.44
2022-08-04T07:31:33.528Z,30.28
2022-08-04T07:34:16.575Z,30.56
2022-08-04T07:36:55.596Z,30.63
2022-08-04T07:39:30.149Z,30.58
2022-08-04T07:42:02.256Z,30.50
2022-08-04T07:44:32.462Z,30.83
2022-08-04T07:47:02.196Z,30.91
2022-08-04T07:49:52.172Z,30.91
2022-08-04T07:52:18.763Z,31.01
2022-08-04T07:54:47.841Z,31.20
2022-08-04T07:57:39.756Z,31.23
2022-08-04T08:00:09.105Z,31.35
2022-08-04T08:02:39.671Z,31.42
2022-08-04T08:05:13.782Z,31.66
2022-08-04T08:07:50.496Z,31.88
2022-08-04T08:10:25.604Z,32.03
2022-08-04T08:12:53.755Z,32.19
2022-08-04T08:15:26.707Z,32.09
2022-08-04T08:17:58.664Z,32.10
2022-08-04T08:20:32.596Z,32.13
2022-08-04T08:23:02.221Z,32.31
2022-08-04T08:25:32.841Z,32.61
2022-08-04T08:28:04.993Z,32.69
2022-08-04T08:30:34.194Z,32.91
2022-08-04T08:33:06.206Z,32.88
2022-08-04T08:35:53.776Z,33.03
2022-08-04T08:38:41.344Z,33.11
2022-08-04T08:41:32.137Z,32.92
2022-08-04T08:44:19.128Z,32.91
2022-08-04T08:47:07.677Z,32.97
2022-08-04T08:50:00.374Z,33.36
2022-08-04T08:53:01.333Z,33.60
2022-08-04T08:55:33.812Z,33.79
2022-08-04T08:58:40.939Z,33.86
2022-08-04T09:01:56.928Z,33.78
2022-08-04T09:04:46.732Z,34.06
2022-08-04T09:07:45.116Z,33.96
2022-08-04T09:10:40.367Z,33.67
2022-08-04T09:13:23.707Z,33.97
2022-08-04T09:16:18.339Z,34.02
2022-08-04T09:19:37.626Z,33.93
2022-08-04T09:22:21.043Z,34.13
2022-08-04T09:25:25.442Z,34.08
2022-08-04T09:27:56.326Z,34.25
2022-08-04T09:30:38.005Z,34.20
2022-08-04T09:33:22.513Z,34.45
2022-08-04T09:36:13.870Z,34.83
2022-08-04T09:39:22.637Z,34.92
2022-08-04T09:42:09.985Z,34.93
2022-08-04T09:45:06.488Z,34.78
2022-08-04T09:47:53.613Z,34.61
2022-08-04T09:50:49.775Z,33.96
2022-08-04T09:53:42.734Z,34.37
2022-08-04T09:56:23.537Z,34.34
2022-08-04T09:59:21.110Z,34.70
2022-08-04T10:01:59.997Z,35.03
2022-08-04T10:04:31.046Z,35.38
2022-08-04T10:07:37.127Z,35.35
2022-08-04T10:10:08.641Z,34.51
2022-08-04T10:13:07.496Z,34.38
2022-08-04T10:16:01.380Z,34.74
2022-08-04T10:18:59.524Z,35.03
2022-08-04T10:22:27.000Z,35.33
2022-08-04T10:24:56.537Z,35.06
2022-08-04T10:27:33.377Z,34.98
2022-08-04T10:30:12.130Z,35.02
2022-08-04T10:33:02.523Z,35.14
2022-08-04T10:35:36.059Z,35.50
2022-08-04T10:38:07.354Z,34.53
2022-08-04T10:40:44.889Z,34.62
2022-08-04T10:43:20.788Z,35.01
2022-08-04T10:45:58.833Z,35.28
2022-08-04T10:48:42.268Z,34.99
2022-08-04T10:51:58.293Z,35.35
2022-08-04T10:54:48.350Z,35.45
2022-08-04T10:57:25.721Z,35.75
2022-08-04T11:00:03.607Z,36.22
2022-08-04T11:02:47.311Z,35.87
2022-08-04T11:05:25.760Z,36.24
2022-08-04T11:08:00.238Z,36.47
2022-08-04T11:10:33.975Z,36.79
2022-08-04T11:13:05.558Z,36.76
2022-08-04T11:15:49.103Z,37.14
2022-08-04T11:18:26.228Z,36.73
2022-08-04T11:21:09.684Z,37.01
2022-08-04T11:23:41.092Z,36.70
2022-08-04T11:26:24.927Z,37.35
2022-08-04T11:29:03.857Z,37.48
2022-08-04T11:31:35.714Z,37.69
2022-08-04T11:34:32.879Z,37.32
2022-08-04T11:37:18.341Z,36.74
2022-08-04T11:39:52.146Z,36.76
2022-08-04T11:42:29.426Z,37.20
2022-08-04T11:45:04.621Z,37.15
2022-08-04T11:47:40.331Z,36.94
2022-08-04T11:50:35.118Z,36.91
2022-08-04T11:53:04.362Z,36.79
2022-08-04T11:55:33.219Z,36.86
2022-08-04T11:58:22.066Z,37.16
2022-08-04T12:00:55.997Z,37.66
2022-08-04T12:03:39.141Z,37.43
2022-08-04T12:06:22.306Z,37.05
2022-08-04T12:09:13.150Z,37.29
2022-08-04T12:12:01.642Z,37.09
2022-08-04T12:14:44.866Z,37.08
2022-08-04T12:17:16.458Z,37.37
2022-08-04T12:20:04.278Z,37.58
2022-08-04T12:22:48.843Z,37.31
2022-08-04T12:25:31.001Z,37.25
2022-08-04T12:28:26.443Z,37.32
2022-08-04T12:31:19.796Z,38.06
2022-08-04T12:34:09.860Z,37.20
2022-08-04T12:36:45.177Z,37.74
2022-08-04T12:39:20.658Z,37.49
2022-08-04T12:41:51.938Z,37.79
2022-08-04T12:44:36.156Z,37.70
2022-08-04T12:47:26.835Z,37.92
2022-08-04T12:50:03.967Z,38.18
2022-08-04T12:55:33.947Z,38.49
2022-08-04T12:58:04.694Z,37.83
2022-08-04T13:00:41.207Z,37.86
2022-08-04T13:03:14.284Z,37.81
2022-08-04T13:05:43.062Z,37.92
2022-08-04T13:08:12.110Z,37.65
2022-08-04T13:10:46.522Z,38.13
2022-08-04T13:13:28.208Z,37.92
2022-08-04T13:16:03.815Z,37.86
2022-08-04T13:18:35.646Z,37.54
2022-08-04T13:21:20.333Z,37.43
2022-08-04T13:24:19.218Z,37.19
2022-08-04T13:27:05.201Z,37.66
2022-08-04T13:29:59.371Z,38.10
2022-08-04T13:32:31.620Z,38.39
2022-08-04T13:35:01.926Z,37.65
2022-08-04T13:37:36.499Z,37.66
2022-08-04T13:40:08.157Z,38.02
2022-08-04T13:42:36.816Z,38.08
2022-08-04T13:45:06.961Z,37.87
2022-08-04T13:47:38.291Z,37.48
2022-08-04T13:50:20.804Z,37.90
2022-08-04T13:52:53.078Z,38.12
2022-08-04T13:55:25.359Z,38.21
2022-08-04T13:57:59.961Z,38.15
2022-08-04T14:00:48.385Z,38.13
2022-08-04T14:03:24.926Z,37.38
2022-08-04T14:06:21.533Z,37.10
2022-08-04T14:09:00.891Z,37.14
2022-08-04T14:12:10.198Z,37.44
2022-08-04T14:14:30.309Z,37.60
2022-08-04T14:17:18.074Z,38.03
2022-08-04T14:19:49.944Z,38.34
2022-08-04T14:22:30.028Z,38.35
2022-08-04T14:24:59.427Z,38.53
2022-08-04T14:27:51.434Z,38.21
2022-08-04T14:30:27.727Z,38.14
2022-08-04T14:34:01.505Z,37.80
2022-08-04T14:36:01.687Z,38.04
2022-08-04T14:38:58.494Z,38.10
2022-08-04T14:41:34.514Z,38.35
2022-08-04T14:44:03.931Z,38.19
2022-08-04T14:46:52.948Z,37.95
2022-08-04T14:49:21.866Z,38.12
2022-08-04T14:51:59.182Z,37.76
2022-08-04T14:54:28.715Z,37.59
2022-08-04T14:57:02.628Z,37.35
2022-08-04T15:00:01.589Z,37.44
2022-08-04T15:02:32.534Z,37.28
2022-08-04T15:05:59.877Z,37.46
2022-08-04T15:07:50.286Z,37.22
2022-08-04T15:10:20.007Z,37.08
2022-08-04T15:12:48.131Z,37.09
2022-08-04T15:15:35.951Z,37.41
2022-08-04T15:18:04.179Z,37.37
2022-08-04T15:20:32.293Z,37.84
2022-08-04T15:23:05.052Z,38.03
2022-08-04T15:25:39.592Z,37.45
2022-08-04T15:28:14.355Z,37.54
2022-08-04T15:30:44.513Z,37.76
2022-08-04T15:33:21.991Z,37.84
2022-08-04T15:36:13.202Z,37.48
2022-08-04T15:38:51.784Z,37.90
2022-08-04T15:41:55.553Z,37.63
2022-08-04T15:44:51.614Z,36.62
2022-08-04T15:47:20.896Z,37.26
2022-08-04T15:50:04.082Z,37.42
2022-08-04T15:53:12.401Z,37.36
2022-08-04T15:55:44.136Z,37.05
2022-08-04T15:58:14.438Z,37.17
2022-08-04T16:00:49.328Z,37.04
2022-08-04T16:04:00.189Z,36.93
2022-08-04T16:06:20.890Z,37.29
2022-08-04T16:08:52.630Z,37.45
2022-08-04T16:11:31.584Z,37.12
2022-08-04T16:14:04.134Z,37.49
2022-08-04T16:16:38.696Z,36.74
2022-08-04T16:19:13.792Z,36.48
2022-08-04T16:22:01.082Z,37.01
2022-08-04T16:24:37.674Z,36.86
2022-08-04T16:27:09.691Z,36.75
2022-08-04T16:29:42.919Z,36.93
2022-08-04T16:32:13.317Z,36.95
2022-08-04T16:35:05.086Z,37.04
2022-08-04T16:37:43.655Z,37.15
2022-08-04T16:40:33.695Z,37.20
2022-08-04T16:43:07.414Z,36.95
2022-08-04T16:45:41.214Z,36.97
2022-08-04T16:48:10.603Z,36.24
2022-08-04T16:51:06.804Z,36.53
2022-08-04T16:53:52.729Z,35.88
2022-08-04T16:56:33.463Z,35.79
2022-08-04T16:59:07.480Z,35.84
2022-08-04T17:01:37.220Z,35.89
2022-08-04T17:04:05.674Z,36.15
2022-08-04T17:06:35.153Z,35.93
2022-08-04T17:09:14.503Z,35.76
2022-08-04T17:11:44.070Z,35.84
2022-08-04T17:14:13.069Z,35.93
2022-08-04T17:16:43.032Z,35.82
2022-08-04T17:19:24.469Z,35.43
2022-08-04T17:22:02.851Z,35.80
2022-08-04T17:24:38.442Z,35.65
2022-08-04T17:28:10.379Z,35.81
2022-08-04T17:29:56.751Z,35.55
2022-08-04T17:32:25.535Z,35.70
2022-08-04T17:34:57.506Z,35.78
2022-08-04T17:37:40.639Z,35.90
2022-08-04T17:40:18.402Z,35.77
2022-08-04T17:44:01.564Z,35.73
2022-08-04T17:46:28.880Z,35.84
2022-08-04T17:49:07.891Z,35.50
2022-08-04T17:52:05.946Z,35.47
2022-08-04T17:54:36.559Z,35.44
2022-08-04T17:57:21.885Z,35.33
2022-08-04T17:59:57.959Z,34.94
2022-08-04T18:02:33.839Z,34.89
2022-08-04T18:05:06.908Z,34.68
2022-08-04T18:08:40.082Z,34.31
2022-08-04T18:10:51.606Z,34.41
2022-08-04T18:13:28.140Z,34.09
2022-08-04T18:16:14.299Z,34.08
2022-08-04T18:19:10.583Z,33.95
2022-08-04T18:21:46.126Z,34.19
2022-08-04T18:24:35.113Z,34.25
2022-08-04T18:27:17.759Z,34.25
2022-08-04T18:30:14.767Z,34.15
2022-08-04T18:32:36.475Z,33.95
2022-08-04T18:35:07.513Z,33.86
2022-08-04T18:38:06.180Z,33.92
2022-08-04T18:40:36.761Z,33.53
2022-08-04T18:43:14.579Z,33.59
2022-08-04T18:45:50.907Z,33.37
2022-08-04T18:48:20.731Z,33.33
2022-08-04T18:51:09.249Z,33.27
2022-08-04T18:53:38.975Z,33.27
2022-08-04T18:56:27.313Z,33.24
2022-08-04T18:59:03.682Z,33.23
2022-08-04T19:02:13.455Z,33.04
2022-08-04T19:04:32.331Z,33.06
2022-08-04T19:07:29.185Z,32.96
2022-08-04T19:09:54.002Z,32.71
2022-08-04T19:12:28.630Z,32.55
2022-08-04T19:15:08.765Z,32.43
2022-08-04T19:17:53.456Z,32.46
2022-08-04T19:20:30.715Z,32.37
2022-08-04T19:24:28.420Z,32.04
2022-08-04T19:26:03.872Z,32.07
2022-08-04T19:28:36.033Z,32.12
2022-08-04T19:31:09.631Z,31.69
2022-08-04T19:33:58.494Z,31.66
2022-08-04T19:36:30.922Z,31.51
2022-08-04T19:39:02.029Z,31.44
2022-08-04T19:41:34.226Z,31.20
2022-08-04T19:44:23.567Z,31.06
2022-08-04T19:46:53.946Z,31.18
2022-08-04T19:50:05.088Z,30.96
2022-08-04T19:52:10.758Z,30.97
2022-08-04T19:54:40.755Z,30.76
2022-08-04T19:57:09.193Z,30.89
2022-08-04T19:59:48.347Z,31.06
2022-08-04T20:02:16.877Z,30.76
2022-08-04T20:04:45.409Z,30.74
2022-08-04T20:07:16.168Z,30.78
2022-08-04T20:09:53.733Z,30.44
2022-08-04T20:12:22.441Z,30.30
2022-08-04T20:14:53.436Z,30.15
2022-08-04T20:18:08.144Z,30.23
2022-08-04T20:20:14.868Z,30.15
2022-08-04T20:22:51.748Z,29.66
2022-08-04T20:25:36.669Z,29.19
2022-08-04T20:28:07.720Z,29.18
2022-08-04T20:30:39.012Z,28.95
2022-08-04T20:33:08.624Z,28.94
2022-08-04T20:36:00.651Z,29.08
2022-08-04T20:38:33.568Z,29.25
2022-08-04T20:41:05.225Z,29.17
2022-08-04T20:43:34.612Z,29.41
2022-08-04T20:46:03.421Z,29.29
2022-08-04T20:48:46.699Z,29.24
2022-08-04T20:51:31.449Z,28.68
2022-08-04T20:54:16.925Z,28.80
2022-08-04T20:56:53.436Z,28.96
2022-08-04T20:59:22.262Z,28.62
2022-08-04T21:01:53.851Z,28.81
2022-08-04T21:04:31.537Z,28.86
2022-08-04T21:07:01.223Z,28.89
2022-08-04T21:09:38.352Z,28.47
2022-08-04T21:12:26.796Z,28.36
2022-08-04T21:15:00.145Z,28.35
2022-08-04T21:17:57.019Z,27.89
2022-08-04T21:20:27.197Z,28.01
2022-08-04T21:22:59.444Z,27.91
2022-08-04T21:25:30.386Z,28.18
2022-08-04T21:28:04.045Z,28.31
2022-08-04T21:33:22.767Z,28.06
2022-08-04T21:35:54.387Z,28.22
2022-08-04T21:38:28.123Z,28.30
2022-08-04T21:41:01.479Z,28.23
2022-08-04T21:43:42.464Z,28.22
2022-08-04T21:46:15.502Z,28.17
2022-08-04T21:48:48.740Z,27.93
2022-08-04T21:51:59.871Z,27.92
2022-08-04T21:54:17.120Z,27.75
2022-08-04T21:56:51.025Z,27.41
2022-08-04T21:59:23.701Z,27.51
2022-08-04T22:02:01.925Z,27.57
2022-08-04T22:04:31.235Z,27.17
2022-08-04T22:07:02.930Z,27.14
2022-08-04T22:09:38.695Z,27.09
2022-08-04T22:12:12.401Z,26.89
2022-08-04T22:14:50.327Z,26.81
2022-08-04T22:17:28.418Z,26.31
2022-08-04T22:20:07.366Z,26.56
2022-08-04T22:23:03.384Z,26.87
2022-08-04T22:25:39.922Z,26.77
2022-08-04T22:28:14.747Z,26.45
2022-08-04T22:30:52.007Z,26.61
2022-08-04T22:33:22.735Z,26.87
2022-08-04T22:35:53.598Z,26.74
2022-08-04T22:38:42.058Z,26.73
2022-08-04T22:43:58.133Z,26.23
2022-08-04T22:46:30.893Z,26.15
2022-08-04T22:48:59.437Z,26.09
2022-08-04T22:51:30.068Z,25.97
2022-08-04T22:54:12.430Z,25.68
2022-08-04T22:56:45.752Z,25.93
2022-08-04T22:59:15.532Z,26.11
2022-08-04T23:01:58.892Z,26.26
2022-08-04T23:04:34.981Z,26.21
2022-08-04T23:07:09.037Z,26.42
2022-08-04T23:09:49.960Z,26.08
2022-08-04T23:12:26.461Z,25.98
2022-08-04T23:14:58.098Z,25.88
2022-08-04T23:17:47.623Z,26.17
2022-08-04T23:20:23.153Z,25.88
2022-08-04T23:22:55.924Z,25.65
2022-08-04T23:25:32.669Z,25.52
2022-08-04T23:28:05.982Z,25.53
2022-08-04T23:30:35.690Z,25.59
2022-08-04T23:33:07.831Z,25.20
2022-08-04T23:35:42.745Z,25.71
2022-08-04T23:38:31.666Z,25.45
2022-08-04T23:41:13.506Z,25.61
2022-08-04T23:43:54.973Z,25.65
2022-08-04T23:46:25.510Z,25.49
2022-08-04T23:49:01.141Z,25.87
2022-08-04T23:51:30.934Z,25.68
2022-08-04T23:54:04.996Z,25.91
2022-08-04T23:56:35.419Z,25.63
2022-08-04T23:59:23.167Z,25.71
